Time;durP1;ratioP1;P1;durP2;ratioP2;P2;SDS_P1;SDS_P2;PMS_P1;PMS_P2;Temp;Humidity;BMP_temperature;BMP_pressure;BME280_temperature;BME280_humidity;BME280_pressure;Samples;Min_cycle;Max_cycle;Signal;HPM_P1;HPM_P2
2024/02/12 00:00:27;;;;;;;4.47;1.77;;;10.40;99.90;;;;;;5019129;28;20952;-71
2024/02/12 00:02:52;;;;;;;2.33;1.40;;;10.30;99.90;;;;;;5017422;28;20187;-71
2024/02/12 00:05:18;;;;;;;3.13;1.47;;;10.30;99.90;;;;;;5016144;28;20459;-71
2024/02/12 00:07:44;;;;;;;2.40;1.57;;;10.30;99.90;;;;;;5018604;28;20176;-71
2024/02/12 00:10:12;;;;;;;4.37;1.70;;;10.40;99.90;;;;;;5014951;28;20216;-71
2024/02/12 00:12:39;;;;;;;3.10;1.60;;;10.40;99.90;;;;;;5014434;28;20231;-71
2024/02/12 00:15:12;;;;;;;2.33;1.47;;;10.50;99.90;;;;;;5012330;28;20466;-71
2024/02/12 00:17:41;;;;;;;2.47;1.63;;;10.40;99.90;;;;;;5017199;28;20482;-71
2024/02/12 00:20:11;;;;;;;2.77;1.40;;;10.40;99.90;;;;;;5018072;28;20411;-72
2024/02/12 00:22:40;;;;;;;2.07;1.37;;;10.40;99.90;;;;;;5015152;28;20419;-71
2024/02/12 00:25:07;;;;;;;4.93;2.00;;;10.40;99.90;;;;;;5015806;28;20466;-71
2024/02/12 00:27:34;;;;;;;5.00;1.70;;;10.40;99.90;;;;;;5015901;28;20415;-72
2024/02/12 00:30:00;;;;;;;2.20;1.40;;;10.50;99.90;;;;;;5009991;28;20466;-72
2024/02/12 00:32:28;;;;;;;3.77;1.50;;;10.50;99.90;;;;;;5014367;28;20444;-72
2024/02/12 00:34:56;;;;;;;3.90;1.70;;;10.50;99.90;;;;;;5014143;28;20200;-71
2024/02/12 00:37:25;;;;;;;3.20;1.50;;;10.50;99.90;;;;;;5014446;28;20419;-71
2024/02/12 00:39:51;;;;;;;3.27;1.80;;;10.50;99.90;;;;;;5017937;28;20440;-71
2024/02/12 00:42:17;;;;;;;4.53;1.93;;;10.50;99.90;;;;;;5017346;28;20497;-72
2024/02/12 00:44:42;;;;;;;3.00;1.50;;;10.40;99.90;;;;;;5010206;28;20467;-71
2024/02/12 00:47:08;;;;;;;8.60;2.90;;;10.40;99.90;;;;;;5016319;28;20191;-71
2024/02/12 00:49:34;;;;;;;4.10;1.40;;;10.40;99.90;;;;;;5012046;28;20219;-71
2024/02/12 00:52:02;;;;;;;3.53;1.80;;;10.40;99.90;;;;;;5015115;28;20246;-71
2024/02/12 00:54:29;;;;;;;3.00;1.67;;;10.40;99.90;;;;;;5014654;28;20535;-71
2024/02/12 00:56:57;;;;;;;3.07;1.60;;;10.30;99.90;;;;;;5015910;28;20411;-71
2024/02/12 00:59:23;;;;;;;2.77;1.40;;;10.30;99.90;;;;;;5012395;28;20427;-71
2024/02/12 01:01:49;;;;;;;2.70;1.63;;;10.40;99.90;;;;;;5016868;28;20461;-71
2024/02/12 01:04:15;;;;;;;2.90;1.43;;;10.40;99.90;;;;;;5013118;28;20449;-72
2024/02/12 01:06:40;;;;;;;2.10;1.40;;;10.30;99.90;;;;;;5017276;28;20180;-71
2024/02/12 01:09:11;;;;;;;3.63;1.63;;;10.30;99.90;;;;;;5016486;28;20215;-71
2024/02/12 01:11:38;;;;;;;3.33;1.73;;;10.30;99.90;;;;;;5017594;28;20630;-72
2024/02/12 01:14:04;;;;;;;2.83;1.47;;;10.30;99.90;;;;;;5016923;28;20447;-71
2024/02/12 01:16:32;;;;;;;2.47;1.47;;;10.40;99.90;;;;;;5010539;28;21007;-71
2024/02/12 01:19:02;;;;;;;5.00;1.43;;;10.40;99.90;;;;;;5020742;28;20434;-71
2024/02/12 01:21:29;;;;;;;3.07;1.33;;;10.40;99.90;;;;;;5013432;28;20914;-71
2024/02/12 01:23:54;;;;;;;4.63;1.70;;;10.40;99.90;;;;;;5007264;28;20447;-72
2024/02/12 01:26:21;;;;;;;3.47;1.30;;;10.40;99.90;;;;;;5014130;28;20486;-71
2024/02/12 01:28:46;;;;;;;4.33;1.80;;;10.40;99.90;;;;;;5014623;28;20690;-71
2024/02/12 01:31:18;;;;;;;2.87;1.67;;;10.40;99.90;;;;;;5015578;28;20424;-71
2024/02/12 01:33:47;;;;;;;2.57;1.47;;;10.40;99.90;;;;;;5012662;28;20207;-71
2024/02/12 01:36:14;;;;;;;2.90;1.60;;;10.50;99.90;;;;;;5013939;28;20810;-71
2024/02/12 01:38:41;;;;;;;2.43;1.40;;;10.50;99.90;;;;;;5018448;28;20526;-71
2024/02/12 01:41:06;;;;;;;3.20;1.30;;;10.40;99.90;;;;;;5018776;28;20434;-71
2024/02/12 01:43:36;;;;;;;2.93;1.50;;;10.40;99.90;;;;;;5014874;28;20455;-72
2024/02/12 01:46:05;;;;;;;3.67;1.80;;;10.40;99.90;;;;;;5015368;28;20654;-71
2024/02/12 01:48:32;;;;;;;3.30;1.67;;;10.30;99.90;;;;;;5010726;28;20463;-71
2024/02/12 01:51:00;;;;;;;3.07;1.60;;;10.30;99.90;;;;;;5016414;28;20531;-72
2024/02/12 01:53:26;;;;;;;5.13;1.50;;;10.30;99.90;;;;;;5015749;28;20411;-71
2024/02/12 01:55:52;;;;;;;2.90;1.73;;;10.40;99.90;;;;;;5014352;28;20411;-71
2024/02/12 01:58:18;;;;;;;3.43;1.90;;;10.30;99.90;;;;;;5011723;28;20451;-71
2024/02/12 02:00:48;;;;;;;3.20;1.70;;;10.20;99.90;;;;;;5014372;28;20180;-71
2024/02/12 02:03:17;;;;;;;2.73;1.63;;;10.20;99.90;;;;;;5015503;28;20443;-71
2024/02/12 02:05:45;;;;;;;2.37;1.47;;;10.20;99.90;;;;;;5013861;28;20799;-71
2024/02/12 02:08:11;;;;;;;2.77;1.43;;;10.10;99.90;;;;;;5010094;28;20954;-71
2024/02/12 02:10:37;;;;;;;3.17;1.53;;;10.10;99.90;;;;;;5019328;28;20936;-71
2024/02/12 02:13:03;;;;;;;2.50;1.40;;;10.10;99.90;;;;;;5015452;28;20461;-71
2024/02/12 02:15:29;;;;;;;3.70;1.50;;;10.10;99.90;;;;;;5020475;28;20615;-71
2024/02/12 02:17:54;;;;;;;3.90;1.80;;;10.10;99.90;;;;;;5021062;28;20459;-71
2024/02/12 02:20:23;;;;;;;6.10;1.93;;;10.10;99.90;;;;;;5020941;28;20183;-71
2024/02/12 02:22:50;;;;;;;2.30;1.70;;;10.10;99.90;;;;;;5020567;28;20275;-71
2024/02/12 02:25:16;;;;;;;2.70;1.77;;;10.10;99.90;;;;;;5019805;28;20432;-72
2024/02/12 02:27:42;;;;;;;3.93;2.00;;;10.10;99.90;;;;;;5021993;28;20912;-71
2024/02/12 02:30:10;;;;;;;2.97;1.50;;;10.10;99.90;;;;;;5015499;28;20208;-71
2024/02/12 02:32:37;;;;;;;2.83;1.80;;;10.10;99.90;;;;;;5016794;28;20192;-71
2024/02/12 02:35:05;;;;;;;2.87;1.90;;;10.10;99.90;;;;;;5020770;28;20451;-71
2024/02/12 02:37:32;;;;;;;2.57;2.00;;;10.00;99.90;;;;;;5018177;28;21407;-71
2024/02/12 02:39:57;;;;;;;4.43;1.87;;;10.10;99.90;;;;;;5021241;28;20809;-72
2024/02/12 02:42:24;;;;;;;6.07;1.90;;;10.10;99.90;;;;;;5019108;28;20428;-72
2024/02/12 02:44:50;;;;;;;3.90;2.17;;;10.10;99.90;;;;;;5018843;28;20734;-71
2024/02/12 02:47:16;;;;;;;3.30;1.73;;;10.10;99.90;;;;;;5016507;28;20519;-71
2024/02/12 02:49:42;;;;;;;5.53;1.80;;;10.20;99.90;;;;;;5015119;28;20231;-71
2024/02/12 02:52:07;;;;;;;4.63;2.30;;;10.10;99.90;;;;;;5014772;28;20490;-71
2024/02/12 02:54:33;;;;;;;2.67;1.93;;;10.20;99.90;;;;;;5013768;28;20200;-72
2024/02/12 02:57:00;;;;;;;3.00;1.90;;;10.10;99.90;;;;;;5012331;28;20188;-71
2024/02/12 02:59:26;;;;;;;3.43;1.70;;;10.10;99.90;;;;;;5020481;28;20456;-72
2024/02/12 03:01:51;;;;;;;2.87;1.70;;;10.10;99.90;;;;;;5012781;28;20463;-71
2024/02/12 03:04:17;;;;;;;3.20;1.67;;;10.10;99.90;;;;;;5013701;28;20209;-72
2024/02/12 03:06:43;;;;;;;3.20;1.87;;;10.00;99.90;;;;;;5019690;28;20208;-72
2024/02/12 03:09:10;;;;;;;3.97;2.20;;;10.00;99.90;;;;;;5009556;28;20815;-72
2024/02/12 03:11:37;;;;;;;3.83;2.10;;;10.10;99.90;;;;;;5016945;28;20714;-72
2024/02/12 03:14:03;;;;;;;7.13;2.80;;;10.10;99.90;;;;;;5021451;28;20440;-72
2024/02/12 03:16:29;;;;;;;6.23;2.10;;;10.00;99.90;;;;;;5020205;28;20453;-72
2024/02/12 03:18:55;;;;;;;8.57;3.40;;;10.00;99.90;;;;;;5016559;28;20189;-72
2024/02/12 03:21:23;;;;;;;5.43;3.17;;;10.00;99.90;;;;;;5012514;28;20472;-71
2024/02/12 03:23:49;;;;;;;3.13;1.97;;;10.00;99.90;;;;;;5016513;28;20530;-71
2024/02/12 03:26:15;;;;;;;3.67;2.37;;;10.10;99.90;;;;;;5011799;28;20511;-72
2024/02/12 03:28:41;;;;;;;3.90;1.93;;;10.10;99.90;;;;;;5015480;28;20563;-72
2024/02/12 03:31:07;;;;;;;3.53;2.00;;;10.10;99.90;;;;;;5011446;28;20497;-72
2024/02/12 03:33:33;;;;;;;4.13;2.23;;;10.20;99.90;;;;;;5016634;28;20519;-72
2024/02/12 03:35:59;;;;;;;4.13;2.10;;;10.10;99.90;;;;;;5016091;28;21113;-72
2024/02/12 03:38:24;;;;;;;2.97;2.10;;;10.10;99.90;;;;;;5016715;28;20182;-72
2024/02/12 03:40:53;;;;;;;3.57;2.30;;;10.20;99.90;;;;;;5011306;28;20204;-72
2024/02/12 03:43:26;;;;;;;3.20;1.90;;;10.20;99.90;;;;;;5016013;28;20315;-72
2024/02/12 03:45:55;;;;;;;3.33;2.13;;;10.20;99.90;;;;;;5016388;28;20445;-72
2024/02/12 04:02:03;;;;;;;4.33;2.20;;;10.00;99.90;;;;;;5013202;28;20419;-71
2024/02/12 04:04:30;;;;;;;2.97;1.93;;;10.10;99.90;;;;;;5013805;28;20973;-72
2024/02/12 04:06:56;;;;;;;4.70;2.50;;;10.10;99.90;;;;;;5019839;28;20605;-72
2024/02/12 04:09:22;;;;;;;2.60;2.00;;;10.20;99.90;;;;;;5013513;28;20562;-72
2024/02/12 04:11:49;;;;;;;5.07;2.73;;;10.20;99.90;;;;;;5014933;28;20510;-72
2024/02/12 04:14:15;;;;;;;5.23;2.60;;;10.10;99.90;;;;;;5010483;28;20844;-72
2024/02/12 04:16:42;;;;;;;3.80;2.30;;;10.10;99.90;;;;;;5013161;28;20439;-72
2024/02/12 04:19:10;;;;;;;5.77;3.10;;;10.10;99.90;;;;;;5022392;28;20431;-72
2024/02/12 04:21:37;;;;;;;5.60;2.60;;;10.10;99.90;;;;;;5009766;28;20490;-72
2024/02/12 04:24:04;;;;;;;4.93;2.80;;;10.10;99.90;;;;;;5010582;28;20531;-72
2024/02/12 04:26:30;;;;;;;4.43;2.20;;;10.10;99.90;;;;;;5011032;28;20909;-72
2024/02/12 04:28:58;;;;;;;5.43;2.20;;;10.10;99.90;;;;;;5009688;28;21041;-72
2024/02/12 04:31:27;;;;;;;3.70;2.10;;;10.10;99.90;;;;;;5015164;28;20439;-72
2024/02/12 04:33:53;;;;;;;3.90;2.17;;;10.10;99.90;;;;;;5010966;28;20827;-72
2024/02/12 04:36:19;;;;;;;4.90;2.27;;;10.20;99.90;;;;;;5018915;28;20416;-72
2024/02/12 04:38:45;;;;;;;4.83;2.70;;;10.20;99.90;;;;;;5013005;28;20189;-72
2024/02/12 04:41:12;;;;;;;3.63;2.40;;;10.30;99.90;;;;;;5017447;28;20489;-72
2024/02/12 04:43:38;;;;;;;3.57;2.10;;;10.20;99.90;;;;;;5011947;28;20204;-72
2024/02/12 04:46:04;;;;;;;3.37;2.20;;;10.20;99.90;;;;;;5016307;28;20451;-71
2024/02/12 04:48:31;;;;;;;3.63;2.47;;;10.20;99.90;;;;;;5012262;28;20489;-71
2024/02/12 04:50:56;;;;;;;3.90;2.10;;;10.20;99.90;;;;;;5012254;28;20196;-71
2024/02/12 04:53:22;;;;;;;4.37;2.50;;;10.10;99.90;;;;;;5015029;28;20424;-71
2024/02/12 04:55:48;;;;;;;8.67;3.00;;;10.10;99.90;;;;;;5013941;28;20189;-71
2024/02/12 04:58:13;;;;;;;12.50;3.90;;;10.10;99.90;;;;;;5015897;28;20176;-71
2024/02/12 05:00:39;;;;;;;5.37;3.10;;;10.00;99.90;;;;;;5013288;28;20176;-71
2024/02/12 05:03:07;;;;;;;4.03;2.80;;;10.00;99.90;;;;;;5013435;28;20256;-71
2024/02/12 05:05:33;;;;;;;7.40;2.87;;;10.00;99.90;;;;;;5010314;28;20328;-72
2024/02/12 05:08:03;;;;;;;4.80;3.30;;;10.10;99.90;;;;;;5014215;28;20458;-71
2024/02/12 05:10:29;;;;;;;4.00;3.07;;;10.00;99.90;;;;;;5009661;28;20468;-71
2024/02/12 05:12:55;;;;;;;5.70;3.60;;;10.00;99.90;;;;;;5012373;28;20521;-71
2024/02/12 05:15:20;;;;;;;7.20;3.47;;;10.00;99.90;;;;;;5019395;28;20538;-71
2024/02/12 05:17:54;;;;;;;6.93;3.33;;;10.00;99.90;;;;;;5016168;28;20177;-72
2024/02/12 05:23:08;;;;;;;5.03;3.30;;;9.80;99.90;;;;;;5014041;28;20513;-72
2024/02/12 05:25:33;;;;;;;8.40;3.47;;;9.70;99.90;;;;;;5014024;28;20445;-71
2024/02/12 05:28:00;;;;;;;6.30;3.77;;;9.70;99.90;;;;;;5011181;28;20423;-71
2024/02/12 05:30:26;;;;;;;4.87;3.60;;;9.70;99.90;;;;;;5012517;28;20263;-71
2024/02/12 05:32:54;;;;;;;4.67;2.90;;;9.70;99.90;;;;;;5012312;28;20468;-71
2024/02/12 05:35:20;;;;;;;4.60;3.33;;;9.50;99.90;;;;;;5013758;28;20247;-71
2024/02/12 05:37:45;;;;;;;7.10;3.47;;;9.60;99.90;;;;;;5011722;28;20407;-71
2024/02/12 05:40:11;;;;;;;6.50;3.93;;;9.50;99.90;;;;;;5010006;28;20188;-71
2024/02/12 05:42:37;;;;;;;5.67;3.50;;;9.50;99.90;;;;;;5012679;28;20188;-71
2024/02/12 05:45:04;;;;;;;5.73;3.90;;;9.60;99.90;;;;;;5008464;28;20439;-71
2024/02/12 05:47:30;;;;;;;5.60;3.80;;;9.60;99.90;;;;;;5013482;28;20238;-71
2024/02/12 05:49:56;;;;;;;6.30;3.50;;;9.70;99.90;;;;;;5006861;28;20470;-71
2024/02/12 05:52:21;;;;;;;6.20;3.70;;;9.70;99.90;;;;;;5014419;28;20172;-71
2024/02/12 05:54:47;;;;;;;3.90;3.23;;;9.70;99.90;;;;;;5013323;28;20224;-71
2024/02/12 05:57:13;;;;;;;8.10;3.90;;;9.70;99.90;;;;;;5012969;28;20238;-71
2024/02/12 05:59:39;;;;;;;4.60;3.80;;;9.70;99.90;;;;;;5016661;28;20443;-71
2024/02/12 06:02:04;;;;;;;4.97;4.27;;;9.70;99.90;;;;;;5013437;28;20446;-71
2024/02/12 06:04:31;;;;;;;4.60;3.40;;;9.60;99.90;;;;;;5011304;28;20219;-71
2024/02/12 06:06:58;;;;;;;6.53;3.90;;;9.70;99.90;;;;;;5009535;28;20201;-71
2024/02/12 06:09:24;;;;;;;5.17;3.70;;;9.60;99.90;;;;;;5014142;28;20477;-71
2024/02/12 06:11:50;;;;;;;6.07;4.03;;;9.70;99.90;;;;;;5014081;28;20823;-71
2024/02/12 06:14:15;;;;;;;7.50;3.80;;;9.70;99.90;;;;;;5011705;28;21009;-71
2024/02/12 06:16:41;;;;;;;11.43;3.87;;;9.80;99.90;;;;;;5015854;28;20212;-71
2024/02/12 06:19:07;;;;;;;5.23;3.70;;;9.60;99.90;;;;;;5010119;28;20720;-71
2024/02/12 06:21:35;;;;;;;5.70;3.80;;;9.60;99.90;;;;;;5016044;28;20188;-71
2024/02/12 06:24:02;;;;;;;4.20;3.03;;;9.50;99.90;;;;;;5013762;28;20215;-71
2024/02/12 06:26:28;;;;;;;4.37;2.83;;;9.50;99.90;;;;;;5019505;28;20431;-71
2024/02/12 06:28:53;;;;;;;5.80;3.50;;;9.50;99.90;;;;;;5014980;28;20467;-71
2024/02/12 06:31:19;;;;;;;4.73;3.30;;;9.50;99.90;;;;;;5013489;28;20268;-71
2024/02/12 06:33:44;;;;;;;5.23;3.70;;;9.50;99.90;;;;;;5018218;28;20223;-72
2024/02/12 06:36:10;;;;;;;5.20;3.57;;;9.50;99.90;;;;;;5013435;28;20177;-71
2024/02/12 06:38:35;;;;;;;8.90;4.07;;;9.40;99.90;;;;;;5011274;28;20234;-72
2024/02/12 06:41:01;;;;;;;5.70;3.90;;;9.40;99.90;;;;;;5011255;28;20252;-71
2024/02/12 06:43:27;;;;;;;6.73;3.37;;;9.40;99.90;;;;;;5009580;28;20195;-72
2024/02/12 06:45:53;;;;;;;4.87;3.20;;;9.40;99.90;;;;;;5011828;28;20218;-72
2024/02/12 06:48:18;;;;;;;4.63;2.97;;;9.50;99.90;;;;;;5012390;28;20181;-72
2024/02/12 06:50:44;;;;;;;4.67;3.23;;;9.40;99.90;;;;;;5012122;28;20532;-72
2024/02/12 06:53:09;;;;;;;5.40;3.40;;;9.50;99.90;;;;;;5007250;28;20234;-72
2024/02/12 06:55:35;;;;;;;4.60;3.27;;;9.40;99.90;;;;;;5007515;28;20185;-72
2024/02/12 06:58:01;;;;;;;5.63;3.07;;;9.40;99.90;;;;;;5013057;28;20661;-71
2024/02/12 07:00:27;;;;;;;3.90;3.27;;;9.40;99.90;;;;;;5015560;28;20480;-72
2024/02/12 07:02:54;;;;;;;5.93;3.67;;;9.40;99.90;;;;;;5017639;28;20191;-72
2024/02/12 07:05:19;;;;;;;4.77;3.57;;;9.40;99.90;;;;;;5013774;28;20595;-71
2024/02/12 07:07:48;;;;;;;5.63;3.10;;;9.40;99.90;;;;;;5014754;28;20418;-71
2024/02/12 07:10:14;;;;;;;4.53;3.33;;;9.40;99.90;;;;;;5013353;28;20728;-71
2024/02/12 07:12:40;;;;;;;3.77;3.17;;;9.50;99.90;;;;;;5018553;28;20431;-71
2024/02/12 07:15:08;;;;;;;4.30;2.93;;;9.50;99.90;;;;;;5017044;28;20444;-71
2024/02/12 07:17:34;;;;;;;4.90;3.30;;;9.50;99.90;;;;;;5018324;28;20423;-71
2024/02/12 07:20:02;;;;;;;7.53;3.63;;;9.50;99.90;;;;;;5016791;28;20424;-71
2024/02/12 07:22:27;;;;;;;8.50;3.27;;;9.50;99.90;;;;;;5014119;28;20530;-71
2024/02/12 07:24:53;;;;;;;5.57;3.10;;;9.60;99.90;;;;;;5015521;28;21004;-71
2024/02/12 07:27:18;;;;;;;5.50;3.23;;;9.50;99.90;;;;;;5013170;28;20771;-71
2024/02/12 07:29:48;;;;;;;4.97;2.90;;;9.60;99.90;;;;;;5017556;28;20215;-72
2024/02/12 07:32:14;;;;;;;3.63;2.80;;;9.70;99.90;;;;;;5015658;28;20562;-72
2024/02/12 07:34:41;;;;;;;4.83;2.83;;;9.60;99.90;;;;;;5013492;28;20534;-71
2024/02/12 07:37:07;;;;;;;4.60;3.10;;;9.60;99.90;;;;;;5015480;28;20434;-71
2024/02/12 07:39:33;;;;;;;3.27;2.30;;;9.60;99.90;;;;;;5015836;28;20424;-71
2024/02/12 07:41:59;;;;;;;5.40;3.50;;;9.70;99.90;;;;;;5012726;28;20436;-71
2024/02/12 07:44:26;;;;;;;5.70;3.97;;;9.70;99.90;;;;;;5012447;28;20217;-71
2024/02/12 07:46:51;;;;;;;5.40;3.40;;;9.70;99.90;;;;;;5010540;28;20439;-71
2024/02/12 07:49:19;;;;;;;4.90;3.17;;;9.60;99.90;;;;;;5017964;28;20468;-71
2024/02/12 07:51:44;;;;;;;5.57;3.43;;;9.70;99.90;;;;;;5013613;28;20477;-71
2024/02/12 07:54:10;;;;;;;5.03;3.33;;;9.80;99.90;;;;;;5017068;28;20527;-71
2024/02/12 07:56:36;;;;;;;3.93;3.13;;;9.70;99.90;;;;;;5020891;28;20810;-71
2024/02/12 07:59:04;;;;;;;5.37;3.53;;;9.80;99.90;;;;;;5015974;28;20207;-72
2024/02/12 08:01:30;;;;;;;4.43;3.13;;;9.80;99.90;;;;;;5013858;28;20211;-71
2024/02/12 08:03:55;;;;;;;6.90;3.77;;;9.90;99.90;;;;;;5017448;28;20459;-72
2024/02/12 08:06:21;;;;;;;5.60;3.20;;;9.90;99.90;;;;;;5016232;28;20536;-71
2024/02/12 08:08:47;;;;;;;6.20;4.60;;;9.90;99.90;;;;;;5019171;28;21094;-71
2024/02/12 08:11:13;;;;;;;3.60;3.10;;;9.90;99.90;;;;;;5017516;28;20192;-71
2024/02/12 08:13:41;;;;;;;4.50;3.50;;;9.90;99.90;;;;;;5016092;28;20591;-71
2024/02/12 08:16:09;;;;;;;5.10;3.90;;;10.00;99.90;;;;;;5015847;28;20498;-71
2024/02/12 08:18:36;;;;;;;5.00;3.20;;;10.00;99.90;;;;;;5016558;28;20427;-71
2024/02/12 08:21:02;;;;;;;5.23;3.57;;;10.00;99.90;;;;;;5015704;28;20436;-71
2024/02/12 08:23:27;;;;;;;4.00;2.80;;;10.00;99.90;;;;;;5015910;28;20505;-71
2024/02/12 08:25:53;;;;;;;7.50;3.70;;;10.20;99.90;;;;;;5015986;28;20806;-71
2024/02/12 08:28:23;;;;;;;8.73;3.27;;;10.20;99.90;;;;;;5014293;28;20195;-71
2024/02/12 08:30:48;;;;;;;7.20;3.57;;;10.30;99.90;;;;;;5018085;28;20188;-72
2024/02/12 08:33:14;;;;;;;5.43;4.93;;;10.30;99.90;;;;;;5013173;28;20450;-71
2024/02/12 08:35:40;;;;;;;6.13;4.73;;;10.30;99.90;;;;;;5015787;28;20185;-71
2024/02/12 08:38:08;;;;;;;6.37;3.67;;;10.30;99.90;;;;;;5015389;28;20431;-71
2024/02/12 08:40:34;;;;;;;4.53;3.37;;;10.30;99.90;;;;;;5014518;28;20267;-71
2024/02/12 08:43:00;;;;;;;7.77;3.63;;;10.30;99.90;;;;;;5018007;28;20412;-72
2024/02/12 08:45:25;;;;;;;5.17;3.70;;;10.40;99.90;;;;;;5017261;28;20455;-72
2024/02/12 08:47:51;;;;;;;5.13;3.27;;;10.50;99.90;;;;;;5016824;28;20425;-71
2024/02/12 08:50:17;;;;;;;5.43;3.77;;;10.60;99.90;;;;;;5014661;28;21236;-72
2024/02/12 08:52:43;;;;;;;4.87;3.60;;;10.60;99.90;;;;;;5017030;28;20385;-71
2024/02/12 08:55:10;;;;;;;7.70;3.70;;;10.60;99.90;;;;;;5017716;28;20708;-71
2024/02/12 08:57:38;;;;;;;5.97;3.70;;;10.60;99.90;;;;;;5019175;28;20423;-72
2024/02/12 09:00:04;;;;;;;7.77;3.80;;;10.70;99.90;;;;;;5016445;28;20506;-72
2024/02/12 09:02:30;;;;;;;7.73;3.67;;;10.60;99.90;;;;;;5015546;28;20431;-71
2024/02/12 09:04:55;;;;;;;5.50;3.50;;;10.60;99.90;;;;;;5017293;28;20450;-71
2024/02/12 09:07:21;;;;;;;7.20;4.47;;;10.70;99.90;;;;;;5016414;28;20195;-71
2024/02/12 09:09:47;;;;;;;8.37;3.70;;;10.70;99.90;;;;;;5014025;28;20422;-70
2024/02/12 09:12:13;;;;;;;5.90;3.70;;;10.70;99.90;;;;;;5012492;28;20237;-70
2024/02/12 09:14:38;;;;;;;9.80;4.23;;;10.60;99.90;;;;;;5017537;28;20251;-71
2024/02/12 09:17:04;;;;;;;8.70;3.90;;;10.60;99.90;;;;;;5016146;28;21225;-71
2024/02/12 09:19:30;;;;;;;5.20;3.23;;;10.60;99.90;;;;;;5015499;28;20562;-70
2024/02/12 09:21:55;;;;;;;8.13;4.27;;;10.60;99.90;;;;;;5015540;28;20192;-70
2024/02/12 09:24:22;;;;;;;4.80;3.03;;;10.50;99.90;;;;;;5012574;28;20208;-70
2024/02/12 09:26:48;;;;;;;4.43;3.20;;;10.50;99.90;;;;;;5018644;28;20189;-72
2024/02/12 09:29:14;;;;;;;5.57;3.23;;;10.50;99.90;;;;;;5016319;28;20984;-71
2024/02/12 09:31:39;;;;;;;5.40;3.27;;;10.50;99.90;;;;;;5019380;28;20263;-71
2024/02/12 09:34:06;;;;;;;6.33;3.43;;;10.60;99.90;;;;;;5017939;28;20258;-71
2024/02/12 09:36:33;;;;;;;5.40;3.17;;;10.60;99.90;;;;;;5017941;28;20296;-71
2024/02/12 09:39:01;;;;;;;4.17;3.57;;;10.40;99.90;;;;;;5019677;28;20426;-71
2024/02/12 09:41:28;;;;;;;6.27;3.40;;;10.30;99.90;;;;;;5015863;28;20432;-71
2024/02/12 09:43:55;;;;;;;6.10;3.20;;;10.40;99.90;;;;;;5016026;28;20467;-71
2024/02/12 09:46:21;;;;;;;5.87;3.60;;;10.40;99.90;;;;;;5010858;28;20439;-71
2024/02/12 09:48:50;;;;;;;5.53;3.10;;;10.50;99.90;;;;;;5014208;28;20493;-71
2024/02/12 09:51:17;;;;;;;4.00;2.57;;;10.50;99.90;;;;;;5013359;28;20446;-72
2024/02/12 09:53:43;;;;;;;6.13;3.20;;;10.60;99.90;;;;;;5015619;28;20442;-71
2024/02/12 09:56:13;;;;;;;5.67;3.10;;;10.60;99.90;;;;;;5017095;28;20415;-71
2024/02/12 09:58:38;;;;;;;5.10;4.03;;;10.50;99.90;;;;;;5017690;28;21039;-70
2024/02/12 10:01:12;;;;;;;4.60;3.20;;;10.60;99.90;;;;;;5016851;28;20442;-70
2024/02/12 10:03:38;;;;;;;5.53;3.13;;;10.60;99.90;;;;;;5017922;28;20215;-70
2024/02/12 10:06:04;;;;;;;5.70;3.13;;;10.70;99.90;;;;;;5020255;28;21920;-70
2024/02/12 10:08:30;;;;;;;4.43;3.13;;;10.80;99.90;;;;;;5019357;28;20424;-71
2024/02/12 10:10:56;;;;;;;6.50;3.20;;;10.90;99.90;;;;;;5015598;28;20239;-70
2024/02/12 10:13:23;;;;;;;6.90;3.30;;;11.00;99.90;;;;;;5012981;28;20435;-70
2024/02/12 10:15:51;;;;;;;5.23;3.30;;;11.00;99.90;;;;;;5009306;28;20204;-70
2024/02/12 10:18:17;;;;;;;5.60;3.73;;;11.00;99.90;;;;;;5009361;28;20432;-71
2024/02/12 10:20:43;;;;;;;6.03;3.20;;;11.10;99.90;;;;;;5016118;28;20485;-71
2024/02/12 10:23:11;;;;;;;5.83;3.77;;;11.10;99.90;;;;;;5013529;28;20204;-71
2024/02/12 10:25:45;;;;;;;6.07;3.90;;;11.20;99.90;;;;;;5010060;28;20438;-71
2024/02/12 10:28:14;;;;;;;7.33;3.60;;;11.20;99.90;;;;;;5015534;28;20581;-71
2024/02/12 10:30:42;;;;;;;6.87;3.20;;;11.30;99.90;;;;;;5015479;28;20468;-71
2024/02/12 10:33:09;;;;;;;5.17;3.10;;;11.30;99.90;;;;;;5027058;28;20438;-72
2024/02/12 10:35:40;;;;;;;4.80;2.80;;;11.50;99.90;;;;;;5016689;28;20450;-71
2024/02/12 10:38:06;;;;;;;4.10;2.67;;;11.70;99.90;;;;;;5013879;28;20419;-71
2024/02/12 10:40:52;;;;;;;4.20;2.80;;;11.70;99.90;;;;;;5016475;28;20783;-71
2024/02/12 10:43:22;;;;;;;5.67;3.10;;;11.80;99.90;;;;;;5011648;28;20455;-71
2024/02/12 10:45:48;;;;;;;4.27;2.40;;;12.00;99.90;;;;;;5017990;28;20448;-71
2024/02/12 10:48:16;;;;;;;4.87;2.93;;;11.90;99.90;;;;;;5015818;28;20432;-71
2024/02/12 10:50:45;;;;;;;7.13;2.90;;;11.90;99.90;;;;;;5017409;28;20471;-71
2024/02/12 10:53:13;;;;;;;3.37;2.47;;;11.70;99.90;;;;;;5017336;28;20434;-71
2024/02/12 10:55:39;;;;;;;6.33;2.83;;;11.80;99.90;;;;;;5020913;28;20510;-71
2024/02/12 10:58:06;;;;;;;4.83;3.00;;;11.70;99.90;;;;;;5019067;28;20415;-70
2024/02/12 11:00:32;;;;;;;3.90;2.70;;;11.70;99.90;;;;;;5013365;28;20440;-71
2024/02/12 11:03:00;;;;;;;3.23;2.20;;;11.80;99.90;;;;;;5016334;28;20454;-71
2024/02/12 11:05:27;;;;;;;6.93;3.60;;;11.90;99.90;;;;;;5015817;28;20217;-71
2024/02/12 11:08:03;;;;;;;12.07;8.60;;;12.00;99.90;;;;;;5018864;28;20431;-71
2024/02/12 11:10:32;;;;;;;3.70;2.30;;;12.10;99.90;;;;;;5016463;28;20470;-72
2024/02/12 11:13:05;;;;;;;2.90;2.20;;;12.20;99.90;;;;;;5017773;28;20838;-72
2024/02/12 11:15:34;;;;;;;3.23;2.07;;;12.20;99.90;;;;;;5015316;28;20582;-71
2024/02/12 11:18:12;;;;;;;5.80;2.70;;;12.30;99.90;;;;;;5016806;28;20525;-72
2024/02/12 11:20:49;;;;;;;3.70;2.40;;;12.00;99.90;;;;;;5012198;28;20450;-71
2024/02/12 11:23:26;;;;;;;4.30;1.80;;;11.90;99.90;;;;;;5015597;28;20422;-71
2024/02/12 11:25:56;;;;;;;5.63;2.60;;;11.90;99.90;;;;;;5023872;28;20449;-72
2024/02/12 11:28:23;;;;;;;4.93;2.33;;;12.20;99.90;;;;;;5016499;28;20454;-73
2024/02/12 11:30:49;;;;;;;3.40;1.80;;;12.30;99.90;;;;;;5014706;28;20481;-73
2024/02/12 11:33:15;;;;;;;11.10;2.37;;;12.40;99.90;;;;;;5015388;28;20435;-72
2024/02/12 11:35:41;;;;;;;3.00;2.40;;;12.40;99.90;;;;;;5016228;28;20442;-72
2024/02/12 11:38:09;;;;;;;4.80;2.30;;;12.50;99.90;;;;;;5014267;28;20697;-71
2024/02/12 11:40:35;;;;;;;4.63;2.93;;;12.50;99.90;;;;;;5013882;28;20586;-72
2024/02/12 11:43:01;;;;;;;4.70;2.50;;;12.50;99.90;;;;;;5013098;28;20447;-73
2024/02/12 11:45:27;;;;;;;4.43;2.43;;;12.50;99.90;;;;;;5011863;28;20205;-73
2024/02/12 11:47:53;;;;;;;3.13;2.10;;;12.60;99.90;;;;;;5010493;28;20521;-73
2024/02/12 11:50:25;;;;;;;6.00;2.90;;;12.80;99.90;;;;;;5021045;28;20467;-72
2024/02/12 11:52:52;;;;;;;4.20;2.47;;;12.80;99.90;;;;;;5010081;28;20177;-72
2024/02/12 11:55:27;;;;;;;3.83;2.27;;;12.80;99.90;;;;;;5015004;28;20469;-73
2024/02/12 11:57:53;;;;;;;6.80;2.20;;;12.80;99.90;;;;;;5014501;28;20424;-73
2024/02/12 12:00:20;;;;;;;3.50;2.30;;;12.90;99.90;;;;;;5010753;28;20412;-71
2024/02/12 12:02:51;;;;;;;5.23;2.97;;;13.00;99.90;;;;;;5012012;28;20220;-73
2024/02/12 12:05:26;;;;;;;3.40;2.40;;;13.10;99.90;;;;;;5012393;28;20469;-71
2024/02/12 12:07:53;;;;;;;6.70;2.10;;;13.10;99.90;;;;;;5014647;28;21780;-71
2024/02/12 12:10:22;;;;;;;6.47;2.70;;;13.10;99.90;;;;;;5016574;28;20594;-72
2024/02/12 12:12:48;;;;;;;5.23;2.03;;;12.90;99.90;;;;;;5016683;28;21007;-71
2024/02/12 12:15:14;;;;;;;4.50;2.50;;;12.90;99.90;;;;;;5016245;28;20483;-73
2024/02/12 12:17:41;;;;;;;2.80;2.17;;;12.70;99.90;;;;;;5014741;28;20307;-73
2024/02/12 12:20:09;;;;;;;4.10;2.43;;;12.70;99.90;;;;;;5017899;28;20195;-73
2024/02/12 12:22:37;;;;;;;7.50;2.80;;;12.80;99.90;;;;;;5017217;28;20543;-72
2024/02/12 12:25:04;;;;;;;3.30;2.67;;;12.90;99.90;;;;;;5019433;28;20446;-72
2024/02/12 12:27:31;;;;;;;4.70;2.60;;;12.80;99.90;;;;;;5016482;28;20445;-72
2024/02/12 12:29:57;;;;;;;5.80;3.47;;;12.90;99.90;;;;;;5012393;28;20852;-71
2024/02/12 12:32:27;;;;;;;10.43;3.10;;;12.90;99.90;;;;;;5011461;28;20460;-71
2024/02/12 12:34:53;;;;;;;3.90;1.97;;;13.00;99.90;;;;;;5013627;28;20494;-70
2024/02/12 12:37:19;;;;;;;3.00;2.37;;;13.20;99.90;;;;;;5014909;28;20458;-70
2024/02/12 12:39:44;;;;;;;3.27;2.10;;;13.40;99.90;;;;;;5014314;28;20278;-71
2024/02/12 12:42:10;;;;;;;5.70;2.53;;;13.40;99.90;;;;;;5015578;28;20898;-73
2024/02/12 12:44:37;;;;;;;4.73;2.17;;;13.30;99.90;;;;;;5008064;28;20209;-71
2024/02/12 12:47:03;;;;;;;6.50;2.37;;;13.30;99.90;;;;;;5018973;28;20238;-71
2024/02/12 12:49:29;;;;;;;4.53;2.13;;;13.20;99.90;;;;;;5008114;28;20513;-71
2024/02/12 12:51:55;;;;;;;5.60;2.20;;;13.00;99.90;;;;;;4997526;28;20965;-72
2024/02/12 12:54:22;;;;;;;3.83;1.90;;;12.80;99.90;;;;;;5010264;28;20283;-71
2024/02/12 12:56:48;;;;;;;4.90;2.40;;;12.80;99.90;;;;;;5015587;28;20177;-70
2024/02/12 12:59:16;;;;;;;5.10;2.10;;;13.10;99.90;;;;;;5016226;28;20439;-71
2024/02/12 13:01:42;;;;;;;5.03;2.10;;;13.30;99.90;;;;;;5010119;28;20899;-72